createdAt,value
2022-10-06T00:00:36.467Z,1013.33
2022-10-06T00:01:36.583Z,1013.36
2022-10-06T00:02:36.534Z,1013.33
2022-10-06T00:03:36.476Z,1013.35
2022-10-06T00:04:36.428Z,1013.33
2022-10-06T00:05:36.435Z,1013.32
2022-10-06T00:06:36.408Z,1013.33
2022-10-06T00:07:36.393Z,1013.33
2022-10-06T00:08:36.378Z,1013.39
2022-10-06T00:09:36.380Z,1013.35
2022-10-06T00:10:36.367Z,1013.40
2022-10-06T00:11:36.360Z,1013.40
2022-10-06T00:12:36.343Z,1013.51
2022-10-06T00:13:36.371Z,1013.49
2022-10-06T00:14:36.320Z,1013.53
2022-10-06T00:15:36.357Z,1013.55
2022-10-06T00:16:36.321Z,1013.56
2022-10-06T00:17:36.281Z,1013.58
2022-10-06T00:18:36.277Z,1013.64
2022-10-06T00:19:36.286Z,1013.66
2022-10-06T00:20:36.249Z,1013.64
2022-10-06T00:21:36.267Z,1013.62
2022-10-06T00:22:36.245Z,1013.70
2022-10-06T00:23:36.228Z,1013.74
2022-10-06T00:24:36.208Z,1013.75
2022-10-06T00:25:36.225Z,1013.76
2022-10-06T00:26:36.189Z,1013.78
2022-10-06T00:27:36.176Z,1013.76
2022-10-06T00:28:36.263Z,1013.75
2022-10-06T00:29:36.151Z,1013.83
2022-10-06T00:30:36.169Z,1013.87
2022-10-06T00:31:36.248Z,1013.89
2022-10-06T00:32:36.127Z,1013.88
2022-10-06T00:33:36.110Z,1013.87
2022-10-06T00:34:36.103Z,1013.92
2022-10-06T00:35:36.087Z,1013.92
2022-10-06T00:36:36.077Z,1013.93
2022-10-06T00:37:36.093Z,1014.07
2022-10-06T00:38:36.062Z,1013.97
2022-10-06T00:39:36.053Z,1014.02
2022-10-06T00:40:36.032Z,1014.01
2022-10-06T00:41:36.029Z,1014.08
2022-10-06T00:42:36.002Z,1014.12
2022-10-06T00:43:36.010Z,1014.08
2022-10-06T00:44:35.982Z,1014.12
2022-10-06T00:45:35.981Z,1014.10
2022-10-06T00:46:36.067Z,1014.12
2022-10-06T00:47:35.954Z,1014.13
2022-10-06T00:48:35.934Z,1014.17
2022-10-06T00:49:35.931Z,1014.22
2022-10-06T00:50:35.924Z,1014.20
2022-10-06T00:51:35.941Z,1014.23
2022-10-06T00:52:35.903Z,1014.22
2022-10-06T00:53:35.921Z,1014.17
2022-10-06T00:54:35.884Z,1014.18
2022-10-06T00:55:35.873Z,1014.14
2022-10-06T00:56:35.856Z,1014.24
2022-10-06T00:57:35.839Z,1014.36
2022-10-06T00:58:35.848Z,1014.38
2022-10-06T00:59:35.849Z,1014.32
2022-10-06T01:00:35.803Z,1014.36
2022-10-06T01:01:35.893Z,1014.32
2022-10-06T01:02:35.849Z,1014.37
2022-10-06T01:03:35.771Z,1014.37
2022-10-06T01:04:35.789Z,1014.34
2022-10-06T01:05:35.751Z,1014.37
2022-10-06T01:06:35.748Z,1014.38
2022-10-06T01:07:35.728Z,1014.44
2022-10-06T01:08:35.725Z,1014.43
2022-10-06T01:09:35.730Z,1014.43
2022-10-06T01:10:35.723Z,1014.49
2022-10-06T01:11:35.686Z,1014.46
2022-10-06T01:12:35.670Z,1014.48
2022-10-06T01:13:35.707Z,1014.54
2022-10-06T01:14:35.653Z,1014.56
2022-10-06T01:15:35.696Z,1014.55
2022-10-06T01:16:35.635Z,1014.57
2022-10-06T01:17:35.629Z,1014.64
2022-10-06T01:18:35.609Z,1014.65
2022-10-06T01:19:35.615Z,1014.61
2022-10-06T01:20:35.606Z,1014.71
2022-10-06T01:21:35.575Z,1014.68
2022-10-06T01:22:35.568Z,1014.64
2022-10-06T01:23:35.565Z,1014.70
2022-10-06T01:24:35.543Z,1014.70
2022-10-06T01:25:35.548Z,1014.80
2022-10-06T01:26:35.532Z,1014.74
2022-10-06T01:27:35.513Z,1014.75
2022-10-06T01:28:35.558Z,1014.79
2022-10-06T01:29:35.491Z,1014.86
2022-10-06T01:30:35.482Z,1014.80
2022-10-06T01:31:35.625Z,1014.77
2022-10-06T01:32:35.449Z,1014.82
2022-10-06T01:33:35.446Z,1014.77
2022-10-06T01:34:35.430Z,1014.86
2022-10-06T01:35:35.439Z,1014.82
2022-10-06T01:36:35.412Z,1014.89
2022-10-06T01:37:35.428Z,1014.93
2022-10-06T01:38:35.385Z,1014.94
2022-10-06T01:39:35.379Z,1014.99
2022-10-06T01:40:35.363Z,1014.93
2022-10-06T01:41:35.482Z,1015.06
2022-10-06T01:42:35.342Z,1015.04
2022-10-06T01:43:35.351Z,1015.11
2022-10-06T01:44:35.325Z,1015.06
2022-10-06T01:45:35.313Z,1015.06
2022-10-06T01:46:35.330Z,1015.09
2022-10-06T01:47:35.296Z,1015.09
2022-10-06T01:48:35.282Z,1015.12
2022-10-06T01:49:35.274Z,1015.11
2022-10-06T01:50:35.265Z,1015.14
2022-10-06T01:51:35.248Z,1015.10
2022-10-06T01:52:35.237Z,1015.16
2022-10-06T01:53:35.236Z,1015.14
2022-10-06T01:54:35.235Z,1015.15
2022-10-06T01:55:35.205Z,1015.18
2022-10-06T01:56:35.189Z,1015.23
2022-10-06T01:57:35.193Z,1015.24
2022-10-06T01:58:35.168Z,1015.24
2022-10-06T01:59:35.171Z,1015.26
2022-10-06T02:00:35.175Z,1015.26
2022-10-06T02:01:35.200Z,1015.31
2022-10-06T02:02:35.128Z,1015.30
2022-10-06T02:03:35.132Z,1015.33
2022-10-06T02:04:35.116Z,1015.36
2022-10-06T02:05:35.090Z,1015.38
2022-10-06T02:06:35.207Z,1015.39
2022-10-06T02:07:35.089Z,1015.39
2022-10-06T02:08:35.074Z,1015.37
2022-10-06T02:09:35.055Z,1015.42
2022-10-06T02:10:35.035Z,1015.43
2022-10-06T02:11:35.064Z,1015.51
2022-10-06T02:12:35.016Z,1015.53
2022-10-06T02:13:35.018Z,1015.48
2022-10-06T02:14:34.998Z,1015.56
2022-10-06T02:15:35.022Z,1015.57
2022-10-06T02:16:34.968Z,1015.56
2022-10-06T02:17:34.966Z,1015.56
2022-10-06T02:18:34.950Z,1015.58
2022-10-06T02:19:34.961Z,1015.55
2022-10-06T02:20:34.965Z,1015.55
2022-10-06T02:21:34.917Z,1015.55
2022-10-06T02:22:34.902Z,1015.62
2022-10-06T02:23:34.892Z,1015.67
2022-10-06T02:24:34.887Z,1015.63
2022-10-06T02:25:34.957Z,1015.62
2022-10-06T02:26:34.875Z,1015.60
2022-10-06T02:27:34.850Z,1015.57
2022-10-06T02:28:35.111Z,1015.68
2022-10-06T02:29:34.928Z,1015.57
2022-10-06T02:30:34.831Z,1015.61
2022-10-06T02:31:34.886Z,1015.59
2022-10-06T02:32:34.799Z,1015.59
2022-10-06T02:33:34.781Z,1015.61
2022-10-06T02:34:34.771Z,1015.65
2022-10-06T02:35:34.761Z,1015.67
2022-10-06T02:36:34.748Z,1015.78
2022-10-06T02:37:34.754Z,1015.85
2022-10-06T02:38:34.736Z,1015.77
2022-10-06T02:39:34.710Z,1015.83
2022-10-06T02:40:34.716Z,1015.85
2022-10-06T02:41:34.688Z,1015.83
2022-10-06T02:42:34.682Z,1015.85
2022-10-06T02:43:34.689Z,1015.90
2022-10-06T02:44:34.659Z,1015.90
2022-10-06T02:45:34.661Z,1015.92
2022-10-06T02:46:34.715Z,1015.95
2022-10-06T02:47:34.621Z,1016.07
2022-10-06T02:48:34.620Z,1016.06
2022-10-06T02:49:34.627Z,1016.08
2022-10-06T02:50:34.594Z,1016.09
2022-10-06T02:51:34.597Z,1016.16
2022-10-06T02:52:34.572Z,1016.18
2022-10-06T02:53:34.555Z,1016.16
2022-10-06T02:54:34.573Z,1016.22
2022-10-06T02:55:34.545Z,1016.19
2022-10-06T02:56:34.527Z,1016.20
2022-10-06T02:57:34.516Z,1016.24
2022-10-06T02:58:34.508Z,1016.30
2022-10-06T02:59:34.493Z,1016.26
2022-10-06T03:00:34.495Z,1016.32
2022-10-06T03:01:34.547Z,1016.29
2022-10-06T03:02:34.606Z,1016.28
2022-10-06T03:03:34.453Z,1016.28
2022-10-06T03:04:34.447Z,1016.31
2022-10-06T03:05:34.430Z,1016.33
2022-10-06T03:06:34.425Z,1016.40
2022-10-06T03:07:34.397Z,1016.43
2022-10-06T03:08:34.396Z,1016.50
2022-10-06T03:09:34.380Z,1016.44
2022-10-06T03:10:34.383Z,1016.45
2022-10-06T03:11:34.356Z,1016.52
2022-10-06T03:12:34.348Z,1016.53
2022-10-06T03:13:34.336Z,1016.51
2022-10-06T03:14:34.343Z,1016.47
2022-10-06T03:15:34.336Z,1016.52
2022-10-06T03:16:34.371Z,1016.53
2022-10-06T03:17:34.332Z,1016.54
2022-10-06T03:18:34.286Z,1016.54
2022-10-06T03:19:34.286Z,1016.71
2022-10-06T03:20:34.294Z,1016.71
2022-10-06T03:21:34.245Z,1016.73
2022-10-06T03:22:34.239Z,1016.75
2022-10-06T03:23:34.226Z,1016.78
2022-10-06T03:24:34.234Z,1016.79
2022-10-06T03:25:34.201Z,1016.80
2022-10-06T03:26:34.212Z,1016.75
2022-10-06T03:27:34.191Z,1016.77
2022-10-06T03:28:34.356Z,1016.77
2022-10-06T03:29:34.190Z,1016.73
2022-10-06T03:30:34.169Z,1016.84
2022-10-06T03:31:34.215Z,1016.81
2022-10-06T03:32:34.132Z,1016.90
2022-10-06T03:33:34.138Z,1016.91
2022-10-06T03:34:34.139Z,1016.96
2022-10-06T03:35:34.093Z,1016.91
2022-10-06T03:36:34.158Z,1016.94
2022-10-06T03:37:34.069Z,1016.91
2022-10-06T03:38:34.064Z,1016.94
2022-10-06T03:39:34.067Z,1017.02
2022-10-06T03:40:34.043Z,1017.01
2022-10-06T03:41:34.057Z,1016.98
2022-10-06T03:42:34.025Z,1017.04
2022-10-06T03:43:34.008Z,1017.06
2022-10-06T03:44:33.994Z,1017.06
2022-10-06T03:45:33.981Z,1017.03
2022-10-06T03:46:34.056Z,1017.06
2022-10-06T03:47:33.974Z,1017.09
2022-10-06T03:48:33.947Z,1017.14
2022-10-06T03:49:33.967Z,1017.05
2022-10-06T03:50:33.928Z,1017.11
2022-10-06T03:51:33.930Z,1017.10
2022-10-06T03:52:33.909Z,1017.17
2022-10-06T03:53:33.889Z,1017.17
2022-10-06T03:54:33.884Z,1017.25
2022-10-06T03:55:33.876Z,1017.25
2022-10-06T03:56:33.861Z,1017.25
2022-10-06T03:57:33.858Z,1017.23
2022-10-06T03:58:33.843Z,1017.36
2022-10-06T03:59:33.847Z,1017.38
2022-10-06T04:00:33.851Z,1017.35
2022-10-06T04:01:33.899Z,1017.34
2022-10-06T04:02:33.825Z,1017.34
2022-10-06T04:03:33.783Z,1017.29
2022-10-06T04:04:33.771Z,1017.34
2022-10-06T04:05:33.778Z,1017.34
2022-10-06T04:06:33.760Z,1017.36
2022-10-06T04:07:33.744Z,1017.38
2022-10-06T04:08:33.742Z,1017.38
2022-10-06T04:09:33.714Z,1017.41
2022-10-06T04:10:33.704Z,1017.51
2022-10-06T04:11:33.694Z,1017.45
2022-10-06T04:12:33.700Z,1017.54
2022-10-06T04:13:33.684Z,1017.56
2022-10-06T04:14:33.670Z,1017.56
2022-10-06T04:15:33.685Z,1017.52
2022-10-06T04:16:33.679Z,1017.57
2022-10-06T04:17:33.627Z,1017.59
2022-10-06T04:18:33.632Z,1017.59
2022-10-06T04:19:33.620Z,1017.59
2022-10-06T04:20:33.592Z,1017.61
2022-10-06T04:21:33.595Z,1017.58
2022-10-06T04:22:33.585Z,1017.70
2022-10-06T04:23:33.564Z,1017.73
2022-10-06T04:24:33.565Z,1017.72
2022-10-06T04:25:33.534Z,1017.72
2022-10-06T04:26:33.527Z,1017.77
2022-10-06T04:27:33.545Z,1017.83
2022-10-06T04:28:34.043Z,1017.89
2022-10-06T04:29:33.496Z,1017.83
2022-10-06T04:30:33.484Z,1017.84
2022-10-06T04:31:33.545Z,1017.85
2022-10-06T04:32:33.458Z,1017.87
2022-10-06T04:33:33.464Z,1017.91
2022-10-06T04:34:33.454Z,1017.88
2022-10-06T04:35:33.439Z,1017.93
2022-10-06T04:36:33.414Z,1017.94
2022-10-06T04:37:33.425Z,1017.93
2022-10-06T04:38:33.736Z,1017.93
2022-10-06T04:39:33.382Z,1017.91
2022-10-06T04:40:33.379Z,1017.87
2022-10-06T04:41:33.400Z,1017.93
2022-10-06T04:42:35.325Z,1017.93
2022-10-06T04:43:33.340Z,1017.97
2022-10-06T04:44:33.329Z,1018.03
2022-10-06T04:45:33.402Z,1018.04
2022-10-06T04:46:48.789Z,1018.06
2022-10-06T04:47:34.328Z,1018.08
2022-10-06T04:48:33.296Z,1018.09
2022-10-06T04:49:33.272Z,1018.13
2022-10-06T04:50:33.259Z,1018.17
2022-10-06T04:51:33.274Z,1018.10
2022-10-06T04:52:33.241Z,1018.11
2022-10-06T04:53:33.251Z,1018.09
2022-10-06T04:54:33.979Z,1018.04
2022-10-06T04:55:33.209Z,1018.12
2022-10-06T04:56:33.199Z,1018.15
2022-10-06T04:57:33.214Z,1018.21
2022-10-06T04:58:33.184Z,1018.28
2022-10-06T04:59:33.167Z,1018.23
2022-10-06T05:00:33.166Z,1018.25
2022-10-06T05:01:33.142Z,1018.30
2022-10-06T05:02:33.197Z,1018.34
2022-10-06T05:03:33.153Z,1018.33
2022-10-06T05:04:33.123Z,1018.33
2022-10-06T05:05:33.088Z,1018.41
2022-10-06T05:06:33.096Z,1018.40
2022-10-06T05:07:33.102Z,1018.37
2022-10-06T05:08:33.508Z,1018.45
2022-10-06T05:09:33.070Z,1018.40
2022-10-06T05:10:33.034Z,1018.44
2022-10-06T05:11:33.025Z,1018.47
2022-10-06T05:12:33.015Z,1018.56
2022-10-06T05:13:33.011Z,1018.56
2022-10-06T05:14:32.996Z,1018.56
2022-10-06T05:15:32.988Z,1018.58
2022-10-06T05:16:33.044Z,1018.65
2022-10-06T05:17:32.966Z,1018.71
2022-10-06T05:18:32.948Z,1018.71
2022-10-06T05:19:32.941Z,1018.71
2022-10-06T05:20:32.923Z,1018.74
2022-10-06T05:21:32.930Z,1018.79
2022-10-06T05:22:32.915Z,1018.76
2022-10-06T05:23:32.910Z,1018.72
2022-10-06T05:24:32.879Z,1018.79
2022-10-06T05:25:32.901Z,1018.83
2022-10-06T05:26:32.870Z,1018.80
2022-10-06T05:27:32.861Z,1018.81
2022-10-06T05:28:33.605Z,1018.80
2022-10-06T05:29:32.828Z,1018.88
2022-10-06T05:30:32.818Z,1018.90
2022-10-06T05:31:32.911Z,1018.94
2022-10-06T05:32:36.091Z,1018.90
2022-10-06T05:33:32.806Z,1018.91
2022-10-06T05:34:32.786Z,1018.93
2022-10-06T05:35:32.757Z,1018.95
2022-10-06T05:36:32.746Z,1018.96
2022-10-06T05:37:32.746Z,1019.00
2022-10-06T05:38:33.049Z,1019.01
2022-10-06T05:39:32.718Z,1019.06
2022-10-06T05:40:32.720Z,1019.00
2022-10-06T05:41:32.716Z,1019.00
2022-10-06T05:42:32.678Z,1019.10
2022-10-06T05:43:32.692Z,1019.11
2022-10-06T05:44:32.672Z,1019.02
2022-10-06T05:45:32.682Z,1019.12
2022-10-06T05:46:32.644Z,1019.08
2022-10-06T05:47:32.624Z,1019.08
2022-10-06T05:48:32.779Z,1019.09
2022-10-06T05:49:32.647Z,1019.10
2022-10-06T05:50:32.605Z,1019.15
2022-10-06T05:51:32.579Z,1019.13
2022-10-06T05:52:32.573Z,1019.18
2022-10-06T05:53:32.578Z,1019.16
2022-10-06T05:54:32.546Z,1019.14
2022-10-06T05:55:32.577Z,1019.18
2022-10-06T05:56:32.524Z,1019.16
2022-10-06T05:57:32.558Z,1019.23
2022-10-06T05:58:32.785Z,1019.22
2022-10-06T05:59:32.491Z,1019.25
2022-10-06T06:00:32.485Z,1019.26
2022-10-06T06:01:32.536Z,1019.29
2022-10-06T06:02:32.553Z,1019.33
2022-10-06T06:03:32.455Z,1019.37
2022-10-06T06:04:32.448Z,1019.34
2022-10-06T06:05:32.419Z,1019.38
2022-10-06T06:06:32.413Z,1019.40
2022-10-06T06:07:32.403Z,1019.45
2022-10-06T06:08:32.855Z,1019.48
2022-10-06T06:09:32.384Z,1019.49
2022-10-06T06:10:32.382Z,1019.47
2022-10-06T06:11:32.353Z,1019.52
2022-10-06T06:12:32.367Z,1019.57
2022-10-06T06:13:32.355Z,1019.62
2022-10-06T06:14:32.342Z,1019.64
2022-10-06T06:15:32.324Z,1019.65
2022-10-06T06:16:32.361Z,1019.61
2022-10-06T06:17:32.293Z,1019.63
2022-10-06T06:18:32.765Z,1019.70
2022-10-06T06:19:32.301Z,1019.73
2022-10-06T06:20:32.257Z,1019.74
2022-10-06T06:21:32.254Z,1019.74
2022-10-06T06:22:32.239Z,1019.74
2022-10-06T06:23:32.237Z,1019.77
2022-10-06T06:24:32.206Z,1019.74
2022-10-06T06:25:32.203Z,1019.70
2022-10-06T06:26:32.194Z,1019.77
2022-10-06T06:27:32.177Z,1019.76
2022-10-06T06:28:32.658Z,1019.82
2022-10-06T06:29:32.204Z,1019.83
2022-10-06T06:30:32.143Z,1019.81
2022-10-06T06:31:32.183Z,1019.89
2022-10-06T06:32:32.126Z,1019.92
2022-10-06T06:33:32.176Z,1019.83
2022-10-06T06:34:32.107Z,1019.90
2022-10-06T06:35:32.097Z,1019.88
2022-10-06T06:36:32.072Z,1019.93
2022-10-06T06:37:32.072Z,1019.96
2022-10-06T06:38:32.818Z,1019.91
2022-10-06T06:39:32.156Z,1019.97
2022-10-06T06:40:32.040Z,1020.00
2022-10-06T06:41:32.035Z,1020.06
2022-10-06T06:42:32.012Z,1020.06
2022-10-06T06:43:32.431Z,1020.13
2022-10-06T06:44:31.991Z,1020.03
2022-10-06T06:45:31.995Z,1020.04
2022-10-06T06:46:32.293Z,1020.07
2022-10-06T06:47:31.955Z,1020.08
2022-10-06T06:48:32.485Z,1020.13
2022-10-06T06:49:31.947Z,1020.12
2022-10-06T06:50:31.929Z,1020.16
2022-10-06T06:51:31.917Z,1020.23
2022-10-06T06:52:31.894Z,1020.15
2022-10-06T06:53:31.920Z,1020.15
2022-10-06T06:54:31.877Z,1020.17
2022-10-06T06:55:32.051Z,1020.23
2022-10-06T06:56:31.849Z,1020.31
2022-10-06T06:57:31.875Z,1020.21
2022-10-06T06:58:32.389Z,1020.22
2022-10-06T06:59:31.820Z,1020.27
2022-10-06T07:00:36.006Z,1020.33
2022-10-06T07:01:31.895Z,1020.35
2022-10-06T07:02:31.864Z,1020.37
2022-10-06T07:03:56.636Z,1020.44
2022-10-06T07:04:32.761Z,1020.40
2022-10-06T07:05:31.775Z,1020.37
2022-10-06T07:06:31.745Z,1020.40
2022-10-06T07:07:31.759Z,1020.42
2022-10-06T07:08:32.365Z,1020.47
2022-10-06T07:09:31.711Z,1020.41
2022-10-06T07:10:31.709Z,1020.46
2022-10-06T07:11:31.692Z,1020.48
2022-10-06T07:12:31.682Z,1020.53
2022-10-06T07:13:31.718Z,1020.55
2022-10-06T07:14:31.703Z,1020.54
2022-10-06T07:15:31.696Z,1020.60
2022-10-06T07:16:31.650Z,1020.60
2022-10-06T07:17:31.646Z,1020.61
2022-10-06T07:18:32.216Z,1020.54
2022-10-06T07:19:31.595Z,1020.56
2022-10-06T07:20:31.580Z,1020.65
2022-10-06T07:21:31.578Z,1020.64
2022-10-06T07:22:31.599Z,1020.63
2022-10-06T07:23:31.561Z,1020.66
2022-10-06T07:24:31.535Z,1020.69
2022-10-06T07:25:31.543Z,1020.69
2022-10-06T07:26:31.545Z,1020.73
2022-10-06T07:27:31.534Z,1020.67
2022-10-06T07:28:31.559Z,1020.82
2022-10-06T07:29:31.489Z,1020.87
2022-10-06T07:30:31.474Z,1020.71
2022-10-06T07:31:31.546Z,1020.75
2022-10-06T07:32:31.510Z,1020.76
2022-10-06T07:33:31.464Z,1020.81
2022-10-06T07:34:31.455Z,1020.78
2022-10-06T07:35:31.434Z,1020.86
2022-10-06T07:36:31.403Z,1020.83
2022-10-06T07:37:31.414Z,1020.92
2022-10-06T07:38:31.394Z,1020.97
2022-10-06T07:39:31.375Z,1021.03
2022-10-06T07:40:31.367Z,1021.07
2022-10-06T07:41:31.353Z,1021.00
2022-10-06T07:42:31.377Z,1021.06
2022-10-06T07:43:31.357Z,1020.97
2022-10-06T07:44:31.330Z,1021.15
2022-10-06T07:45:31.334Z,1021.08
2022-10-06T07:46:31.319Z,1021.17
2022-10-06T07:47:31.294Z,1021.32
2022-10-06T07:48:31.276Z,1021.28
2022-10-06T07:49:31.344Z,1021.32
2022-10-06T07:50:31.250Z,1021.29
2022-10-06T07:51:31.257Z,1021.29
2022-10-06T07:52:31.275Z,1021.26
2022-10-06T07:53:31.219Z,1021.16
2022-10-06T07:54:31.211Z,1021.06
2022-10-06T07:55:31.199Z,1021.03
2022-10-06T07:56:31.204Z,1021.03
2022-10-06T07:57:31.223Z,1021.03
2022-10-06T07:58:31.172Z,1021.05
2022-10-06T07:59:31.175Z,1021.10
2022-10-06T08:01:31.209Z,1021.06
2022-10-06T08:02:34.726Z,1021.21
2022-10-06T08:03:31.128Z,1021.17
2022-10-06T08:04:31.095Z,1021.19
2022-10-06T08:05:31.112Z,1021.24
2022-10-06T08:06:31.079Z,1021.23
2022-10-06T08:07:31.072Z,1021.20
2022-10-06T08:08:31.060Z,1021.19
2022-10-06T08:09:31.043Z,1021.30
2022-10-06T08:10:31.046Z,1021.32
2022-10-06T08:11:31.032Z,1021.29
2022-10-06T08:12:31.015Z,1021.27
2022-10-06T08:13:30.995Z,1021.28
2022-10-06T08:14:30.983Z,1021.30
2022-10-06T08:15:30.976Z,1021.39
2022-10-06T08:16:31.099Z,1021.40
2022-10-06T08:17:30.959Z,1021.38
2022-10-06T08:18:47.339Z,1021.51
2022-10-06T08:19:31.929Z,1021.47
2022-10-06T08:20:30.915Z,1021.41
2022-10-06T08:21:30.934Z,1021.43
2022-10-06T08:22:30.893Z,1021.47
2022-10-06T08:23:30.900Z,1021.50
2022-10-06T08:24:54.067Z,1021.48
2022-10-06T08:25:31.869Z,1021.53
2022-10-06T08:26:30.854Z,1021.55
2022-10-06T08:27:30.839Z,1021.52
2022-10-06T08:28:30.830Z,1021.57
2022-10-06T08:29:30.870Z,1021.55
2022-10-06T08:30:30.820Z,1021.64
2022-10-06T08:31:30.824Z,1021.69
2022-10-06T08:32:30.796Z,1021.66
2022-10-06T08:33:30.770Z,1021.77
2022-10-06T08:34:30.820Z,1021.80
2022-10-06T08:35:30.756Z,1021.78
2022-10-06T08:36:32.434Z,1021.73
2022-10-06T08:37:30.773Z,1021.81
2022-10-06T08:38:30.723Z,1021.85
2022-10-06T08:39:30.713Z,1021.83
2022-10-06T08:40:30.690Z,1021.80
2022-10-06T08:41:30.683Z,1021.93
2022-10-06T08:42:30.672Z,1021.92
2022-10-06T08:43:30.674Z,1021.86
2022-10-06T08:44:30.666Z,1021.87
2022-10-06T08:45:33.910Z,1021.93
2022-10-06T08:46:31.639Z,1021.89
2022-10-06T08:47:30.632Z,1021.93
2022-10-06T08:48:30.631Z,1021.92
2022-10-06T08:49:30.619Z,1021.89
2022-10-06T08:50:30.584Z,1021.95
2022-10-06T08:51:30.597Z,1021.90
2022-10-06T08:52:30.568Z,1021.96
2022-10-06T08:53:30.572Z,1021.93
2022-10-06T08:54:30.555Z,1022.01
2022-10-06T08:55:30.535Z,1021.98
2022-10-06T08:56:30.517Z,1022.01
2022-10-06T08:57:30.504Z,1022.02
2022-10-06T08:58:30.763Z,1022.01
2022-10-06T08:59:30.546Z,1022.04
2022-10-06T09:00:30.470Z,1022.09
2022-10-06T09:01:30.647Z,1022.09
2022-10-06T09:02:30.525Z,1022.09
2022-10-06T09:03:30.440Z,1022.09
2022-10-06T09:04:30.432Z,1022.07
2022-10-06T09:05:30.434Z,1022.07
2022-10-06T09:06:30.400Z,1022.16
2022-10-06T09:07:30.402Z,1022.09
2022-10-06T09:08:30.394Z,1022.19
2022-10-06T09:09:30.397Z,1022.13
2022-10-06T09:10:30.377Z,1022.19
2022-10-06T09:11:30.393Z,1022.19
2022-10-06T09:12:30.351Z,1022.18
2022-10-06T09:13:30.337Z,1022.17
2022-10-06T09:14:30.358Z,1022.20
2022-10-06T09:15:30.308Z,1022.24
2022-10-06T09:16:30.350Z,1022.26
2022-10-06T09:17:30.280Z,1022.32
2022-10-06T09:18:49.435Z,1022.24
2022-10-06T09:19:33.736Z,1022.27
2022-10-06T09:20:30.263Z,1022.30
2022-10-06T09:21:30.253Z,1022.28
2022-10-06T09:22:30.219Z,1022.32
2022-10-06T09:23:30.215Z,1022.28
2022-10-06T09:24:30.216Z,1022.24
2022-10-06T09:25:30.218Z,1022.26
2022-10-06T09:26:30.189Z,1022.35
2022-10-06T09:27:30.173Z,1022.34
2022-10-06T09:28:30.262Z,1022.31
2022-10-06T09:29:30.169Z,1022.35
2022-10-06T09:30:30.134Z,1022.37
2022-10-06T09:31:30.205Z,1022.28
2022-10-06T09:32:30.115Z,1022.35
2022-10-06T09:33:30.115Z,1022.38
2022-10-06T09:34:30.104Z,1022.41
2022-10-06T09:35:30.096Z,1022.41
2022-10-06T09:36:30.071Z,1022.47
2022-10-06T09:37:30.071Z,1022.38
2022-10-06T09:38:30.057Z,1022.40
2022-10-06T09:39:30.074Z,1022.43
2022-10-06T09:40:30.029Z,1022.40
2022-10-06T09:41:30.038Z,1022.42
2022-10-06T09:42:30.015Z,1022.47
2022-10-06T09:43:30.039Z,1022.47
2022-10-06T09:44:29.985Z,1022.45
2022-10-06T09:45:29.992Z,1022.47
2022-10-06T09:46:29.958Z,1022.43
2022-10-06T09:47:29.950Z,1022.46
2022-10-06T09:48:29.937Z,1022.48
2022-10-06T09:49:29.954Z,1022.47
2022-10-06T09:50:29.918Z,1022.44
2022-10-06T09:51:29.903Z,1022.48
2022-10-06T09:52:29.930Z,1022.50
2022-10-06T09:53:32.317Z,1022.46
2022-10-06T09:54:29.889Z,1022.51
2022-10-06T09:55:29.899Z,1022.51
2022-10-06T09:56:29.845Z,1022.59
2022-10-06T09:57:29.877Z,1022.55
2022-10-06T09:58:29.827Z,1022.56
2022-10-06T09:59:29.821Z,1022.63
2022-10-06T10:00:29.969Z,1022.59
2022-10-06T10:01:29.900Z,1022.57
2022-10-06T10:02:29.834Z,1022.68
2022-10-06T10:03:29.773Z,1022.64
2022-10-06T10:04:29.765Z,1022.68
2022-10-06T10:05:29.747Z,1022.69
2022-10-06T10:06:29.758Z,1022.66
2022-10-06T10:07:29.749Z,1022.68
2022-10-06T10:08:29.763Z,1022.76
2022-10-06T10:09:29.723Z,1022.70
2022-10-06T10:10:29.690Z,1022.79
2022-10-06T10:11:29.687Z,1022.79
2022-10-06T10:12:29.696Z,1022.76
2022-10-06T10:13:29.683Z,1022.70
2022-10-06T10:14:29.682Z,1022.84
2022-10-06T10:15:29.664Z,1022.79
2022-10-06T10:16:29.671Z,1022.66
2022-10-06T10:17:29.650Z,1022.76
2022-10-06T10:18:29.627Z,1022.82
2022-10-06T10:19:29.596Z,1022.80
2022-10-06T10:20:29.587Z,1022.74
2022-10-06T10:21:29.580Z,1022.84
2022-10-06T10:22:29.560Z,1022.84
2022-10-06T10:23:31.746Z,1022.88
2022-10-06T10:24:29.575Z,1022.86
2022-10-06T10:25:29.537Z,1022.87
2022-10-06T10:26:29.544Z,1022.85
2022-10-06T10:27:29.505Z,1022.90
2022-10-06T10:28:29.607Z,1022.82
2022-10-06T10:29:32.847Z,1022.82
2022-10-06T10:30:29.473Z,1022.89
2022-10-06T10:31:29.500Z,1022.86
2022-10-06T10:32:29.447Z,1022.88
2022-10-06T10:33:29.451Z,1022.84
2022-10-06T10:34:29.464Z,1022.84
2022-10-06T10:35:29.435Z,1022.83
2022-10-06T10:36:29.410Z,1022.85
2022-10-06T10:37:29.409Z,1022.85
2022-10-06T10:38:29.379Z,1022.87
2022-10-06T10:39:29.403Z,1022.91
2022-10-06T10:40:29.386Z,1022.82
2022-10-06T10:41:29.344Z,1022.79
2022-10-06T10:42:29.349Z,1022.80
2022-10-06T10:43:29.356Z,1022.85
2022-10-06T10:44:29.353Z,1022.77
2022-10-06T10:45:29.321Z,1022.84
2022-10-06T10:46:29.335Z,1022.80
2022-10-06T10:47:29.293Z,1022.86
2022-10-06T10:48:29.323Z,1022.86
2022-10-06T10:49:29.277Z,1022.85
2022-10-06T10:50:29.255Z,1022.81
2022-10-06T10:51:29.237Z,1022.87
2022-10-06T10:52:29.235Z,1022.81
2022-10-06T10:53:29.234Z,1022.90
2022-10-06T10:54:29.232Z,1022.80
2022-10-06T10:55:29.204Z,1022.84
2022-10-06T10:56:29.181Z,1022.81
2022-10-06T10:57:29.173Z,1022.86
2022-10-06T10:58:29.164Z,1022.84
2022-10-06T10:59:29.166Z,1022.87
2022-10-06T11:00:29.139Z,1022.87
2022-10-06T11:01:29.143Z,1022.93
2022-10-06T11:02:29.124Z,1022.93
2022-10-06T11:03:29.135Z,1022.98
2022-10-06T11:04:29.183Z,1022.98
2022-10-06T11:05:29.206Z,1022.97
2022-10-06T11:06:29.081Z,1022.97
2022-10-06T11:07:29.070Z,1022.95
2022-10-06T11:08:29.057Z,1022.99
2022-10-06T11:09:29.046Z,1022.92
2022-10-06T11:10:29.042Z,1022.95
2022-10-06T11:11:29.091Z,1022.99
2022-10-06T11:12:29.012Z,1023.00
2022-10-06T11:13:28.993Z,1023.04
2022-10-06T11:14:28.983Z,1023.04
2022-10-06T11:15:28.979Z,1023.00
2022-10-06T11:16:29.026Z,1023.00
2022-10-06T11:17:29.728Z,1023.11
2022-10-06T11:18:28.938Z,1023.02
2022-10-06T11:19:28.936Z,1023.05
2022-10-06T11:20:28.926Z,1023.06
2022-10-06T11:21:28.912Z,1023.06
2022-10-06T11:22:28.898Z,1023.03
2022-10-06T11:23:28.904Z,1023.06
2022-10-06T11:24:28.887Z,1023.17
2022-10-06T11:25:31.314Z,1023.07
2022-10-06T11:26:29.869Z,1023.05
2022-10-06T11:27:28.859Z,1023.07
2022-10-06T11:28:28.919Z,1023.00
2022-10-06T11:29:28.822Z,1023.12
2022-10-06T11:30:28.803Z,1023.00
2022-10-06T11:31:28.826Z,1023.03
2022-10-06T11:32:28.799Z,1023.08
2022-10-06T11:33:28.814Z,1023.01
2022-10-06T11:34:28.781Z,1023.03
2022-10-06T11:35:28.760Z,1023.03
2022-10-06T11:36:28.758Z,1023.00
2022-10-06T11:37:28.727Z,1023.01
2022-10-06T11:38:28.732Z,1023.03
2022-10-06T11:39:28.728Z,1023.02
2022-10-06T11:40:28.695Z,1023.03
2022-10-06T11:41:28.691Z,1023.13
2022-10-06T11:43:28.689Z,1023.08
2022-10-06T11:44:28.688Z,1023.03
2022-10-06T11:45:28.783Z,1023.08
2022-10-06T11:46:31.750Z,1023.11
2022-10-06T11:47:36.306Z,1023.07
2022-10-06T11:48:29.609Z,1022.99
2022-10-06T11:49:28.694Z,1023.05
2022-10-06T11:50:28.605Z,1023.05
2022-10-06T11:51:28.615Z,1022.99
2022-10-06T11:52:28.568Z,1023.01
2022-10-06T11:53:28.553Z,1023.01
2022-10-06T11:54:28.559Z,1022.97
2022-10-06T11:55:28.530Z,1023.01
2022-10-06T11:56:28.521Z,1022.99
2022-10-06T11:57:31.228Z,1022.96
2022-10-06T11:58:44.035Z,1022.93
2022-10-06T11:59:29.487Z,1022.96
2022-10-06T12:00:28.484Z,1022.97
2022-10-06T12:01:28.460Z,1022.91
2022-10-06T12:02:28.594Z,1022.93
2022-10-06T12:03:28.451Z,1022.89
2022-10-06T12:04:28.440Z,1022.92
2022-10-06T12:05:55.359Z,1022.93
2022-10-06T12:06:29.414Z,1022.91
2022-10-06T12:07:28.394Z,1022.86